Time;durP1;ratioP1;P1;durP2;ratioP2;P2;SDS_P1;SDS_P2;PMS_P1;PMS_P2;Temp;Humidity;BMP_temperature;BMP_pressure;BME280_temperature;BME280_humidity;BME280_pressure;Samples;Min_cycle;Max_cycle;Signal;HPM_P1;HPM_P2
2024/01/29 00:00:25;;;;;;;2.83;2.45;;;16.40;45.40;;;;;;5015304;28;45339;-63
2024/01/29 00:02:51;;;;;;;3.20;2.58;;;16.40;45.30;;;;;;5013716;28;46367;-62
2024/01/29 00:05:18;;;;;;;2.88;2.55;;;16.40;45.40;;;;;;5003020;28;45195;-63
2024/01/29 00:07:45;;;;;;;3.47;2.58;;;16.40;45.30;;;;;;5002901;28;45402;-62
2024/01/29 00:10:14;;;;;;;4.68;2.80;;;16.30;45.30;;;;;;5003217;28;45362;-63
2024/01/29 00:12:40;;;;;;;5.35;3.10;;;16.30;45.30;;;;;;5001847;28;45445;-62
2024/01/29 00:15:08;;;;;;;4.20;2.78;;;16.30;45.30;;;;;;5002859;28;45298;-62
2024/01/29 00:17:35;;;;;;;3.20;2.55;;;16.30;45.30;;;;;;5003098;28;45473;-62
2024/01/29 00:20:02;;;;;;;4.35;2.80;;;16.20;45.40;;;;;;5010539;28;45506;-63
2024/01/29 00:22:29;;;;;;;3.78;2.65;;;16.20;45.30;;;;;;5022480;27;45776;-63
2024/01/29 00:24:56;;;;;;;4.15;2.90;;;16.20;45.30;;;;;;5022638;27;45189;-62
2024/01/29 00:27:24;;;;;;;3.47;2.67;;;16.20;45.30;;;;;;5022781;27;45202;-61
2024/01/29 00:29:51;;;;;;;2.75;2.53;;;16.10;45.30;;;;;;5022658;27;45320;-62
2024/01/29 00:32:18;;;;;;;3.50;2.80;;;16.10;45.30;;;;;;5022559;28;47269;-62
2024/01/29 00:34:46;;;;;;;3.38;2.63;;;16.10;45.40;;;;;;5022488;27;45322;-62
2024/01/29 00:37:13;;;;;;;3.53;2.58;;;16.10;45.40;;;;;;5022559;27;45243;-62
2024/01/29 00:39:39;;;;;;;4.03;2.78;;;16.00;45.40;;;;;;5022622;27;45277;-62
2024/01/29 00:42:06;;;;;;;3.03;2.50;;;16.00;45.40;;;;;;5022267;27;46389;-62
2024/01/29 00:44:35;;;;;;;3.38;2.88;;;16.00;45.40;;;;;;5022232;28;45351;-62
2024/01/29 00:47:02;;;;;;;3.65;2.83;;;15.90;45.40;;;;;;5022195;27;45229;-62
2024/01/29 00:49:31;;;;;;;3.70;2.75;;;15.90;45.40;;;;;;5022627;27;45414;-62
2024/01/29 00:51:58;;;;;;;3.13;2.40;;;15.90;45.50;;;;;;5022117;28;47233;-62
2024/01/29 00:54:25;;;;;;;2.85;2.33;;;15.80;45.40;;;;;;5012602;27;45283;-62
2024/01/29 00:56:52;;;;;;;4.47;2.85;;;15.80;45.50;;;;;;5002213;28;45260;-62
2024/01/29 00:59:19;;;;;;;4.72;3.20;;;15.80;45.50;;;;;;5002564;28;45418;-62
2024/01/29 01:01:47;;;;;;;3.75;3.15;;;15.70;45.50;;;;;;5001996;28;46972;-62
2024/01/29 01:04:15;;;;;;;4.65;2.95;;;15.70;45.50;;;;;;5002284;28;45486;-62
2024/01/29 01:06:42;;;;;;;3.08;2.40;;;15.70;45.50;;;;;;5002108;28;45346;-63
2024/01/29 01:09:09;;;;;;;3.63;2.72;;;15.70;45.50;;;;;;5001988;28;45392;-62
2024/01/29 01:11:36;;;;;;;4.38;2.42;;;15.60;45.50;;;;;;5001939;28;45486;-63
2024/01/29 01:14:03;;;;;;;2.95;2.15;;;15.60;45.50;;;;;;5002003;28;45326;-62
2024/01/29 01:16:30;;;;;;;2.47;2.28;;;15.60;45.60;;;;;;5001946;28;45216;-63
2024/01/29 01:18:58;;;;;;;3.33;2.58;;;15.60;45.50;;;;;;5002189;28;45272;-63
2024/01/29 01:21:25;;;;;;;2.25;2.03;;;15.50;46.10;;;;;;5001645;28;46978;-62
2024/01/29 01:23:51;;;;;;;3.00;2.70;;;15.50;45.50;;;;;;5002664;28;45300;-63
2024/01/29 01:26:18;;;;;;;3.78;2.40;;;15.50;45.50;;;;;;5004949;28;45401;-63
2024/01/29 01:28:45;;;;;;;3.58;2.55;;;15.50;45.60;;;;;;5005017;28;45431;-63
2024/01/29 01:31:12;;;;;;;2.50;2.20;;;15.40;45.60;;;;;;5004622;28;47304;-63
2024/01/29 01:33:38;;;;;;;2.55;2.35;;;15.40;46.20;;;;;;5004811;28;45301;-62
2024/01/29 01:36:07;;;;;;;4.20;2.63;;;15.40;45.60;;;;;;5002354;28;45397;-62
2024/01/29 01:38:34;;;;;;;2.55;2.25;;;15.40;45.60;;;;;;5005045;28;45366;-62
2024/01/29 01:41:00;;;;;;;2.60;2.38;;;15.40;45.60;;;;;;5004795;28;46265;-63
2024/01/29 01:43:27;;;;;;;3.20;2.20;;;15.30;45.50;;;;;;5004917;28;45248;-62
2024/01/29 01:46:04;;;;;;;2.78;2.47;;;15.30;45.60;;;;;;5004885;28;45269;-61
2024/01/29 01:48:31;;;;;;;2.47;2.28;;;15.30;45.60;;;;;;5004686;28;45461;-62
2024/01/29 01:50:58;;;;;;;2.85;2.30;;;15.20;45.60;;;;;;5004696;28;46443;-62
2024/01/29 01:53:26;;;;;;;5.38;2.58;;;15.20;45.60;;;;;;5005804;28;45470;-62
2024/01/29 01:55:53;;;;;;;4.07;2.47;;;15.20;45.70;;;;;;5024584;28;45348;-62
2024/01/29 01:58:25;;;;;;;2.63;2.22;;;15.10;45.60;;;;;;5024633;27;45239;-62
2024/01/29 02:00:51;;;;;;;2.83;2.13;;;15.10;45.60;;;;;;5024045;28;45264;-62
2024/01/29 02:03:18;;;;;;;2.85;2.33;;;15.10;45.60;;;;;;5024413;27;45196;-62
2024/01/29 02:05:46;;;;;;;2.40;2.20;;;15.10;45.60;;;;;;5024528;27;45626;-62
2024/01/29 02:08:12;;;;;;;3.33;2.50;;;15.10;46.30;;;;;;5024258;27;45510;-62
2024/01/29 02:10:41;;;;;;;2.30;2.10;;;15.00;45.60;;;;;;5024126;27;45309;-62
2024/01/29 02:13:11;;;;;;;3.00;1.65;;;15.00;46.30;;;;;;5024368;27;45268;-62
2024/01/29 02:15:38;;;;;;;3.00;2.30;;;15.00;45.70;;;;;;5024454;27;45380;-61
2024/01/29 02:18:05;;;;;;;1.85;1.73;;;15.00;46.00;;;;;;5024630;27;45426;-61
2024/01/29 02:20:32;;;;;;;3.60;2.20;;;15.00;46.20;;;;;;5024076;27;45468;-62
2024/01/29 02:23:00;;;;;;;3.40;2.10;;;14.90;45.60;;;;;;5024233;27;45252;-61
2024/01/29 02:25:27;;;;;;;2.47;2.25;;;14.90;45.70;;;;;;5024258;28;45363;-63
2024/01/29 02:27:54;;;;;;;2.20;2.00;;;14.90;45.70;;;;;;5021566;28;44712;-62
2024/01/29 02:30:21;;;;;;;2.20;2.00;;;14.80;45.70;;;;;;5023857;27;45291;-62
2024/01/29 02:32:47;;;;;;;2.10;1.90;;;14.80;45.70;;;;;;5024118;28;45299;-62
2024/01/29 02:35:14;;;;;;;1.60;1.50;;;14.80;45.70;;;;;;5023553;27;45120;-63
2024/01/29 02:37:42;;;;;;;1.88;1.70;;;14.80;45.70;;;;;;5024042;28;45335;-62
2024/01/29 02:40:10;;;;;;;1.98;1.67;;;14.80;45.70;;;;;;5023744;27;45311;-61
2024/01/29 02:42:37;;;;;;;2.20;1.95;;;14.70;45.60;;;;;;5023771;28;45391;-62
2024/01/29 02:45:05;;;;;;;1.60;1.50;;;14.70;45.70;;;;;;5024141;27;45232;-62
2024/01/29 02:47:32;;;;;;;1.70;1.50;;;14.70;45.60;;;;;;5024027;28;45556;-62
2024/01/29 02:49:58;;;;;;;2.53;1.83;;;14.70;45.80;;;;;;5023604;27;46382;-62
2024/01/29 02:52:25;;;;;;;2.20;2.00;;;14.70;45.60;;;;;;5023865;27;45269;-62
2024/01/29 02:54:52;;;;;;;1.92;1.73;;;14.70;45.70;;;;;;5010381;28;45390;-61
2024/01/29 02:57:23;;;;;;;2.08;1.90;;;14.60;45.60;;;;;;5004174;28;45323;-62
2024/01/29 02:59:50;;;;;;;2.30;2.10;;;14.60;45.60;;;;;;5003684;27;45620;-62
2024/01/29 03:02:17;;;;;;;2.67;1.88;;;14.60;45.70;;;;;;5003702;28;45342;-62
2024/01/29 03:04:44;;;;;;;2.42;1.80;;;14.60;46.30;;;;;;5003871;28;45253;-61
2024/01/29 03:07:11;;;;;;;2.00;1.88;;;14.50;45.60;;;;;;5003837;28;45316;-61
2024/01/29 03:09:38;;;;;;;2.53;1.80;;;14.50;45.60;;;;;;5003261;28;45327;-62
2024/01/29 03:12:05;;;;;;;1.88;1.77;;;14.50;45.70;;;;;;5003583;28;45446;-61
2024/01/29 03:14:33;;;;;;;2.00;1.80;;;14.50;45.70;;;;;;5003686;28;45280;-62
2024/01/29 03:17:00;;;;;;;2.10;1.90;;;14.50;45.70;;;;;;5003950;28;45422;-62
2024/01/29 03:19:27;;;;;;;1.60;1.50;;;14.40;45.70;;;;;;5003270;28;46396;-62
2024/01/29 03:21:53;;;;;;;1.90;1.75;;;14.40;45.70;;;;;;5003499;28;45424;-62
2024/01/29 03:24:20;;;;;;;1.85;1.60;;;14.40;45.70;;;;;;5003530;28;45291;-62
2024/01/29 03:26:47;;;;;;;1.63;1.52;;;14.40;45.70;;;;;;5003984;28;45352;-62
2024/01/29 03:29:14;;;;;;;2.72;1.77;;;14.40;46.30;;;;;;5003120;28;47611;-63
2024/01/29 03:31:42;;;;;;;1.83;1.50;;;14.30;45.70;;;;;;5003347;28;45312;-62
2024/01/29 03:34:09;;;;;;;1.60;1.50;;;14.30;45.70;;;;;;5003680;28;45390;-61
2024/01/29 03:36:36;;;;;;;1.95;1.50;;;14.30;45.70;;;;;;5000999;28;45341;-63
2024/01/29 03:39:03;;;;;;;1.83;1.67;;;14.30;45.70;;;;;;5003204;28;45762;-62
2024/01/29 03:41:30;;;;;;;2.25;1.63;;;14.30;45.70;;;;;;5003232;28;45315;-62
2024/01/29 03:43:57;;;;;;;1.77;1.50;;;14.30;45.70;;;;;;5003304;28;45392;-61
2024/01/29 03:46:23;;;;;;;2.42;1.50;;;14.20;45.70;;;;;;5003336;28;45454;-61
2024/01/29 03:48:51;;;;;;;2.22;1.58;;;14.20;45.60;;;;;;5001729;28;45300;-62
2024/01/29 03:51:18;;;;;;;1.70;1.60;;;14.20;45.70;;;;;;5003099;28;45327;-62
2024/01/29 03:53:45;;;;;;;1.50;1.40;;;14.20;45.70;;;;;;5007340;28;45208;-62
2024/01/29 03:56:12;;;;;;;2.22;1.60;;;14.10;45.70;;;;;;5023364;27;45296;-63
2024/01/29 03:58:39;;;;;;;1.92;1.60;;;14.10;45.70;;;;;;5022742;27;46669;-61
2024/01/29 04:01:06;;;;;;;1.50;1.38;;;14.10;45.70;;;;;;5022781;27;45435;-63
2024/01/29 04:03:32;;;;;;;1.88;1.55;;;14.10;45.70;;;;;;5023275;27;45324;-62
2024/01/29 04:06:01;;;;;;;1.75;1.45;;;14.10;45.80;;;;;;5023235;27;45251;-63
2024/01/29 04:08:27;;;;;;;2.92;1.60;;;14.00;45.80;;;;;;5022350;27;45401;-61
2024/01/29 04:10:54;;;;;;;1.75;1.65;;;14.00;45.90;;;;;;5022744;27;45315;-62
2024/01/29 04:13:21;;;;;;;1.92;1.73;;;14.10;45.90;;;;;;5023118;27;45279;-62
2024/01/29 04:15:48;;;;;;;1.80;1.70;;;14.10;45.80;;;;;;5023082;27;45256;-61
2024/01/29 04:18:14;;;;;;;1.85;1.75;;;14.10;45.80;;;;;;5022838;27;46378;-63
2024/01/29 04:20:41;;;;;;;1.50;1.40;;;14.10;45.80;;;;;;5022554;27;45331;-62
2024/01/29 04:23:09;;;;;;;1.45;1.30;;;14.10;45.70;;;;;;5022929;27;45404;-62
2024/01/29 04:25:36;;;;;;;1.60;1.50;;;14.10;45.70;;;;;;5022877;27;45298;-63
2024/01/29 04:28:03;;;;;;;1.73;1.60;;;14.20;45.70;;;;;;5022613;27;45352;-61
2024/01/29 04:30:30;;;;;;;1.55;1.45;;;14.30;45.70;;;;;;5022277;28;45243;-62
2024/01/29 04:32:57;;;;;;;1.52;1.42;;;14.30;45.50;;;;;;5022710;27;45141;-62
2024/01/29 04:35:24;;;;;;;2.03;1.75;;;14.40;45.30;;;;;;5022759;27;45319;-62
2024/01/29 04:37:50;;;;;;;1.70;1.60;;;14.50;45.20;;;;;;5022180;27;46759;-62
2024/01/29 04:40:22;;;;;;;1.85;1.45;;;14.60;45.00;;;;;;5022249;27;45264;-62
2024/01/29 04:42:49;;;;;;;1.73;1.48;;;14.80;44.90;;;;;;5022424;28;45305;-62
2024/01/29 04:45:16;;;;;;;2.25;1.70;;;14.90;44.70;;;;;;5022580;27;45489;-63
2024/01/29 04:47:43;;;;;;;2.03;1.50;;;15.00;44.60;;;;;;5022187;27;45268;-62
2024/01/29 04:50:10;;;;;;;1.58;1.48;;;15.10;44.40;;;;;;5022080;27;45235;-62
2024/01/29 04:52:37;;;;;;;1.85;1.42;;;15.20;44.20;;;;;;5022535;27;45279;-62
2024/01/29 04:55:04;;;;;;;1.30;1.20;;;15.30;44.00;;;;;;5007400;28;45400;-62
2024/01/29 04:57:32;;;;;;;1.80;1.42;;;15.50;43.80;;;;;;5001930;28;46351;-62
2024/01/29 04:59:59;;;;;;;1.33;1.00;;;15.60;43.60;;;;;;5004407;28;45325;-62
2024/01/29 05:02:26;;;;;;;1.90;1.30;;;15.70;43.40;;;;;;5005242;28;45300;-62
2024/01/29 05:04:53;;;;;;;1.20;1.20;;;15.80;43.20;;;;;;5005577;28;45480;-62
2024/01/29 05:07:20;;;;;;;2.20;1.30;;;15.90;43.10;;;;;;5005202;28;45296;-61
2024/01/29 05:09:46;;;;;;;3.97;1.35;;;16.00;42.90;;;;;;5004434;28;45320;-62
2024/01/29 05:12:13;;;;;;;1.35;1.25;;;16.10;42.80;;;;;;5005256;28;45342;-62
2024/01/29 05:14:41;;;;;;;1.38;1.23;;;16.20;42.70;;;;;;5005451;28;45533;-63
2024/01/29 05:17:08;;;;;;;1.73;1.30;;;16.30;42.50;;;;;;5004918;28;45303;-63
2024/01/29 05:19:35;;;;;;;1.98;1.30;;;16.30;42.30;;;;;;5004925;28;45240;-63
2024/01/29 05:22:02;;;;;;;1.23;1.08;;;16.40;42.20;;;;;;5005057;28;45318;-62
2024/01/29 05:24:29;;;;;;;2.30;1.55;;;16.40;42.00;;;;;;5002752;28;45398;-62
2024/01/29 05:26:55;;;;;;;1.77;1.35;;;16.50;41.90;;;;;;5004722;28;45265;-63
2024/01/29 05:29:22;;;;;;;1.23;1.10;;;16.60;41.80;;;;;;5004569;28;45299;-62
2024/01/29 05:31:50;;;;;;;1.48;1.35;;;16.60;41.70;;;;;;5005246;28;45406;-62
2024/01/29 05:34:17;;;;;;;1.65;1.30;;;16.70;41.60;;;;;;5005141;28;45378;-62
2024/01/29 05:36:44;;;;;;;1.42;1.27;;;16.80;41.60;;;;;;5004695;28;46414;-63
2024/01/29 05:39:11;;;;;;;1.92;1.30;;;16.80;41.50;;;;;;5004527;28;45312;-62
2024/01/29 05:41:37;;;;;;;2.38;1.70;;;16.90;41.40;;;;;;5004902;28;45207;-63
2024/01/29 05:44:05;;;;;;;1.85;1.30;;;16.90;41.30;;;;;;5005043;28;45299;-62
2024/01/29 05:46:31;;;;;;;1.60;1.20;;;17.00;41.20;;;;;;5004537;28;45371;-62
2024/01/29 05:49:00;;;;;;;1.65;1.30;;;17.00;41.10;;;;;;5004397;28;45336;-62
2024/01/29 05:51:26;;;;;;;1.38;1.08;;;17.10;41.00;;;;;;5004747;28;45372;-62
2024/01/29 05:53:53;;;;;;;1.27;1.10;;;17.10;40.90;;;;;;5010085;28;45197;-63
2024/01/29 05:56:20;;;;;;;2.28;1.30;;;17.20;40.90;;;;;;5024525;28;45337;-62
2024/01/29 05:58:47;;;;;;;2.65;1.30;;;17.20;40.80;;;;;;5024307;27;45396;-62
2024/01/29 06:01:14;;;;;;;1.60;1.50;;;17.20;40.70;;;;;;5024468;27;45301;-62
2024/01/29 06:03:41;;;;;;;1.30;1.20;;;17.30;40.70;;;;;;5024692;27;45447;-62
2024/01/29 06:06:09;;;;;;;1.30;1.20;;;17.30;40.60;;;;;;5024317;27;45292;-62
2024/01/29 06:08:35;;;;;;;2.47;1.30;;;17.30;40.60;;;;;;5024101;27;45341;-62
2024/01/29 06:11:02;;;;;;;1.92;1.60;;;17.30;40.50;;;;;;5023302;27;45442;-62
2024/01/29 06:13:29;;;;;;;1.63;1.42;;;17.40;40.40;;;;;;5024615;27;45314;-62
2024/01/29 06:15:56;;;;;;;2.17;1.58;;;17.40;40.40;;;;;;5024433;27;45396;-63
2024/01/29 06:18:23;;;;;;;2.28;1.60;;;17.40;40.30;;;;;;5024134;27;45256;-62
2024/01/29 06:20:50;;;;;;;1.98;1.80;;;17.50;40.20;;;;;;5024357;27;45327;-62
2024/01/29 06:23:18;;;;;;;1.45;1.35;;;17.50;40.20;;;;;;5024456;27;45512;-62
2024/01/29 06:25:45;;;;;;;3.03;1.70;;;17.50;40.10;;;;;;5024147;27;46444;-62
2024/01/29 06:28:12;;;;;;;2.63;1.40;;;17.50;40.20;;;;;;5024021;27;45393;-62
2024/01/29 06:30:38;;;;;;;1.70;1.52;;;17.60;40.10;;;;;;5024143;28;45268;-62
2024/01/29 06:33:06;;;;;;;1.75;1.65;;;17.60;40.00;;;;;;5024548;27;45569;-62
2024/01/29 06:35:32;;;;;;;1.85;1.30;;;17.70;40.00;;;;;;5023986;27;46425;-62
2024/01/29 06:37:59;;;;;;;1.48;1.38;;;17.70;39.90;;;;;;5023836;28;45344;-62
2024/01/29 06:40:27;;;;;;;3.88;1.58;;;17.70;39.80;;;;;;5024233;27;45335;-62
2024/01/29 06:42:55;;;;;;;1.73;1.63;;;17.70;39.80;;;;;;5024174;27;45485;-62
2024/01/29 06:45:22;;;;;;;2.33;1.42;;;17.70;39.70;;;;;;5023849;28;45380;-62
2024/01/29 06:47:48;;;;;;;2.80;1.65;;;17.80;39.70;;;;;;5023708;27;45349;-60
2024/01/29 06:50:15;;;;;;;2.35;1.40;;;17.80;39.70;;;;;;5023777;27;45314;-61
2024/01/29 06:52:42;;;;;;;2.03;1.50;;;17.80;39.60;;;;;;5024128;27;45333;-62
2024/01/29 06:55:09;;;;;;;1.55;1.45;;;17.90;39.60;;;;;;5007876;27;46296;-63
2024/01/29 06:57:37;;;;;;;1.70;1.60;;;17.90;39.60;;;;;;5003935;28;45546;-63
2024/01/29 07:00:05;;;;;;;2.47;1.42;;;17.80;39.40;;;;;;5003932;28;45292;-62
2024/01/29 07:02:32;;;;;;;2.13;1.67;;;17.90;39.50;;;;;;5004459;27;45363;-62
2024/01/29 07:04:59;;;;;;;2.30;2.00;;;17.90;39.40;;;;;;5003639;28;45383;-62
2024/01/29 07:07:26;;;;;;;1.63;1.52;;;17.90;39.30;;;;;;5003724;28;45386;-62
2024/01/29 07:09:54;;;;;;;3.10;1.77;;;18.00;39.30;;;;;;5003616;28;45393;-63
2024/01/29 07:12:21;;;;;;;2.03;1.83;;;18.00;39.30;;;;;;5003978;28;45433;-62
2024/01/29 07:14:49;;;;;;;1.95;1.75;;;18.00;39.20;;;;;;5003515;28;46370;-62
2024/01/29 07:17:16;;;;;;;2.00;1.77;;;18.00;39.20;;;;;;5003607;28;45338;-62
2024/01/29 07:19:44;;;;;;;2.85;2.00;;;18.00;39.10;;;;;;5003651;28;45414;-62
2024/01/29 07:22:14;;;;;;;2.13;1.92;;;18.00;39.10;;;;;;5003748;28;45311;-62
2024/01/29 07:24:41;;;;;;;2.25;1.77;;;18.00;39.10;;;;;;5003369;28;47014;-63
2024/01/29 07:27:08;;;;;;;3.20;2.05;;;18.00;39.10;;;;;;5003436;28;45751;-63
2024/01/29 07:29:35;;;;;;;2.25;1.77;;;18.00;39.10;;;;;;5010074;28;45338;-63
2024/01/29 07:32:03;;;;;;;3.65;2.03;;;18.00;39.10;;;;;;5022938;28;45314;-62
2024/01/29 07:34:30;;;;;;;2.15;1.88;;;18.00;39.20;;;;;;5023144;27;45613;-61
2024/01/29 07:36:57;;;;;;;2.13;1.90;;;17.90;39.20;;;;;;5023164;27;45392;-61
2024/01/29 07:39:24;;;;;;;2.85;2.00;;;17.90;39.20;;;;;;5022974;28;45357;-61
2024/01/29 07:41:51;;;;;;;2.20;2.00;;;17.80;39.20;;;;;;5023002;27;45418;-62
2024/01/29 07:44:17;;;;;;;2.22;1.98;;;17.90;39.30;;;;;;5022827;28;45373;-61
2024/01/29 07:46:44;;;;;;;2.83;1.83;;;17.80;39.30;;;;;;5023078;27;45260;-61
2024/01/29 07:49:12;;;;;;;2.42;2.13;;;17.80;39.40;;;;;;5022976;27;45362;-61
2024/01/29 07:51:40;;;;;;;3.63;1.75;;;17.70;39.50;;;;;;5022987;27;45357;-62
2024/01/29 07:54:08;;;;;;;2.17;1.88;;;17.70;39.60;;;;;;5023068;27;46707;-61
2024/01/29 07:56:35;;;;;;;3.08;2.08;;;17.60;39.70;;;;;;5022752;27;45266;-62
2024/01/29 07:59:02;;;;;;;2.67;2.17;;;17.60;39.80;;;;;;5022563;28;45378;-61
2024/01/29 08:01:29;;;;;;;2.58;2.05;;;17.50;39.90;;;;;;5022969;27;45447;-61
2024/01/29 08:03:56;;;;;;;3.33;2.28;;;17.50;40.00;;;;;;5022629;27;45369;-63
2024/01/29 08:06:24;;;;;;;2.45;1.75;;;17.40;40.10;;;;;;5022677;27;45414;-63
2024/01/29 08:08:51;;;;;;;3.10;2.10;;;17.40;40.20;;;;;;5018464;27;45194;-61
2024/01/29 08:11:18;;;;;;;3.55;1.92;;;17.40;40.20;;;;;;5012045;27;46771;-63
2024/01/29 08:13:44;;;;;;;4.90;2.53;;;17.40;40.20;;;;;;5019136;28;45460;-61
2024/01/29 08:16:11;;;;;;;4.15;2.10;;;17.50;40.30;;;;;;5008474;28;45365;-63
2024/01/29 08:18:38;;;;;;;2.92;2.00;;;17.50;40.20;;;;;;5029729;27;45424;-62
2024/01/29 08:21:05;;;;;;;5.55;2.20;;;17.60;40.20;;;;;;5010486;27;45403;-62
2024/01/29 08:23:33;;;;;;;3.30;2.15;;;17.70;40.20;;;;;;5019302;28;46623;-62
2024/01/29 08:26:00;;;;;;;3.92;2.30;;;17.80;40.10;;;;;;5018370;28;45488;-62
2024/01/29 08:28:27;;;;;;;4.15;2.35;;;17.90;40.10;;;;;;5019285;28;45331;-60
2024/01/29 08:30:55;;;;;;;3.33;2.03;;;17.90;40.00;;;;;;5019871;28;45479;-62
2024/01/29 08:33:22;;;;;;;4.35;2.10;;;18.00;39.90;;;;;;5014935;27;45521;-62
2024/01/29 08:35:50;;;;;;;2.63;2.38;;;18.00;39.90;;;;;;5014607;27;45417;-64
2024/01/29 08:38:16;;;;;;;3.00;2.45;;;18.10;39.80;;;;;;5016030;28;45394;-62
2024/01/29 08:40:54;;;;;;;3.55;2.10;;;18.10;39.80;;;;;;5019971;28;45480;-61
2024/01/29 08:43:22;;;;;;;3.70;2.28;;;18.10;39.70;;;;;;5008886;28;45573;-61
2024/01/29 08:45:49;;;;;;;3.70;2.33;;;18.20;39.70;;;;;;5017024;27;45327;-61
2024/01/29 08:48:16;;;;;;;4.80;2.30;;;18.20;39.70;;;;;;5011350;28;45388;-63
2024/01/29 08:50:43;;;;;;;3.28;2.95;;;18.20;39.60;;;;;;5010984;28;45313;-61
2024/01/29 08:53:09;;;;;;;2.97;2.17;;;18.30;39.60;;;;;;5018925;27;45419;-61
2024/01/29 08:55:36;;;;;;;3.60;2.40;;;18.30;39.60;;;;;;5007932;27;45721;-64
2024/01/29 08:58:05;;;;;;;4.15;2.90;;;18.30;39.60;;;;;;5010924;27;45536;-65
2024/01/29 09:00:36;;;;;;;3.20;2.63;;;18.30;39.60;;;;;;5020802;27;45334;-60
2024/01/29 09:03:03;;;;;;;4.90;3.03;;;18.30;39.50;;;;;;5016660;27;45505;-61
2024/01/29 09:05:29;;;;;;;5.95;2.80;;;18.30;39.50;;;;;;5014023;28;45526;-63
2024/01/29 09:07:56;;;;;;;5.78;2.33;;;18.30;39.60;;;;;;5020921;27;45449;-62
2024/01/29 09:10:24;;;;;;;3.53;2.70;;;18.30;39.60;;;;;;5015024;28;45567;-62
2024/01/29 09:12:50;;;;;;;4.45;2.58;;;18.30;39.60;;;;;;5014651;28;45395;-61
2024/01/29 09:15:19;;;;;;;3.08;2.42;;;18.30;39.70;;;;;;5019062;28;45546;-62
2024/01/29 09:17:45;;;;;;;4.13;2.72;;;18.20;39.70;;;;;;5016642;28;45369;-62
2024/01/29 09:20:13;;;;;;;3.20;2.38;;;18.30;39.80;;;;;;5017434;27;45351;-62
2024/01/29 09:22:40;;;;;;;3.13;2.67;;;18.20;39.80;;;;;;5016920;27;46482;-64
2024/01/29 09:25:07;;;;;;;3.53;2.90;;;18.20;39.90;;;;;;5006018;28;45377;-62
2024/01/29 09:27:35;;;;;;;8.10;3.20;;;18.20;40.00;;;;;;5004698;28;45391;-64
2024/01/29 09:30:02;;;;;;;5.00;2.90;;;18.10;40.10;;;;;;5018502;28;45328;-64
2024/01/29 09:32:31;;;;;;;3.72;2.53;;;18.10;40.20;;;;;;5017343;27;46777;-63
2024/01/29 09:34:57;;;;;;;3.75;2.85;;;18.10;40.30;;;;;;5014207;27;45520;-61
2024/01/29 09:37:24;;;;;;;4.82;3.10;;;18.00;40.30;;;;;;5018603;28;45461;-60
2024/01/29 09:39:53;;;;;;;5.00;2.80;;;18.00;40.50;;;;;;5021956;27;45415;-62
2024/01/29 09:42:24;;;;;;;4.18;2.97;;;18.00;40.60;;;;;;5021323;27;45447;-61
2024/01/29 09:44:53;;;;;;;3.90;3.20;;;17.90;40.60;;;;;;5021110;28;45366;-60
2024/01/29 09:47:20;;;;;;;7.18;3.47;;;17.90;40.70;;;;;;5024064;27;45400;-61
2024/01/29 09:49:48;;;;;;;6.95;3.30;;;17.80;40.80;;;;;;5024805;27;45691;-61
2024/01/29 09:52:15;;;;;;;4.15;3.10;;;17.80;41.50;;;;;;5024161;27;46377;-61
2024/01/29 09:54:42;;;;;;;4.13;3.13;;;17.80;40.90;;;;;;5023428;27;45212;-62
2024/01/29 09:57:15;;;;;;;5.78;3.28;;;17.90;41.00;;;;;;5023951;27;45271;-61
2024/01/29 09:59:42;;;;;;;5.03;3.28;;;17.90;41.00;;;;;;5017468;27;45383;-61
2024/01/29 10:02:09;;;;;;;8.77;3.33;;;18.00;40.90;;;;;;5022393;28;46798;-61
2024/01/29 10:04:36;;;;;;;4.70;3.22;;;18.00;40.90;;;;;;5024107;27;45443;-61
2024/01/29 10:07:05;;;;;;;7.50;3.40;;;18.10;40.80;;;;;;5024249;27;45407;-61
2024/01/29 10:09:31;;;;;;;4.07;3.10;;;18.20;41.40;;;;;;5024070;28;45580;-62
2024/01/29 10:11:58;;;;;;;5.50;3.88;;;18.30;40.70;;;;;;5024215;27;47420;-60
2024/01/29 10:14:27;;;;;;;4.90;3.67;;;18.30;40.70;;;;;;5023617;27;45248;-61
2024/01/29 10:16:53;;;;;;;6.75;3.90;;;18.40;40.60;;;;;;5023513;28;45366;-61
2024/01/29 10:19:20;;;;;;;5.13;3.40;;;18.50;40.50;;;;;;5024193;28;45445;-61
2024/01/29 10:21:47;;;;;;;3.97;3.17;;;18.50;40.40;;;;;;5012536;28;45354;-61
2024/01/29 10:24:16;;;;;;;7.00;3.03;;;18.60;40.40;;;;;;5011566;27;45441;-61
2024/01/29 10:26:43;;;;;;;6.75;3.38;;;18.60;40.30;;;;;;5023638;28;45447;-61
2024/01/29 10:29:10;;;;;;;5.35;3.38;;;18.70;40.20;;;;;;5023990;27;45369;-62
2024/01/29 10:31:37;;;;;;;6.00;3.38;;;18.70;40.20;;;;;;5023087;28;45469;-61
2024/01/29 10:34:04;;;;;;;4.85;3.00;;;18.80;40.70;;;;;;5021565;27;45360;-63
2024/01/29 10:36:31;;;;;;;7.00;3.58;;;18.80;40.10;;;;;;5014838;28;45439;-61
2024/01/29 10:38:58;;;;;;;5.50;3.22;;;18.90;40.00;;;;;;5022410;28;45457;-61
2024/01/29 10:41:27;;;;;;;3.75;3.15;;;18.90;40.60;;;;;;5018971;27;46862;-63
2024/01/29 10:43:55;;;;;;;4.38;3.28;;;18.90;39.90;;;;;;5015947;28;45479;-63
2024/01/29 10:46:22;;;;;;;4.38;3.00;;;19.00;39.90;;;;;;5027356;27;45509;-66
2024/01/29 10:48:50;;;;;;;4.90;2.88;;;19.00;39.80;;;;;;5021470;28;45477;-62
2024/01/29 10:51:17;;;;;;;4.43;3.08;;;19.00;39.80;;;;;;5020562;28;46549;-61
2024/01/29 10:53:45;;;;;;;3.50;2.92;;;19.10;39.80;;;;;;5018794;28;45332;-61
2024/01/29 10:56:12;;;;;;;5.80;3.35;;;19.10;39.80;;;;;;5018360;28;45316;-61
2024/01/29 10:58:41;;;;;;;4.32;3.03;;;19.10;39.80;;;;;;5022562;28;45630;-61
2024/01/29 11:01:08;;;;;;;3.42;2.72;;;19.20;39.70;;;;;;5020395;28;45705;-61
2024/01/29 11:03:36;;;;;;;4.00;3.10;;;19.20;39.70;;;;;;5018273;28;45462;-63
2024/01/29 11:06:08;;;;;;;7.43;3.42;;;19.20;39.70;;;;;;5018888;28;45386;-62
2024/01/29 11:08:35;;;;;;;4.28;3.45;;;19.20;39.70;;;;;;5020111;28;45291;-62
2024/01/29 11:11:03;;;;;;;5.45;3.13;;;19.20;39.70;;;;;;5019944;27;46737;-61
2024/01/29 11:13:30;;;;;;;5.25;3.35;;;19.30;39.70;;;;;;5018317;28;45361;-61
2024/01/29 11:15:58;;;;;;;7.80;3.65;;;19.30;39.70;;;;;;5015441;28;45380;-61
2024/01/29 11:18:25;;;;;;;5.30;3.17;;;19.30;39.70;;;;;;5011404;28;45250;-62
2024/01/29 11:20:51;;;;;;;5.43;3.03;;;19.30;39.60;;;;;;5006930;27;48082;-61
2024/01/29 11:23:21;;;;;;;7.88;3.28;;;19.40;39.60;;;;;;5020093;28;46212;-61
2024/01/29 11:25:49;;;;;;;9.02;3.03;;;19.40;39.60;;;;;;5019790;28;45454;-61
2024/01/29 11:28:16;;;;;;;5.68;2.97;;;19.40;39.60;;;;;;5018174;28;45326;-61
2024/01/29 11:30:48;;;;;;;4.00;2.75;;;19.40;39.60;;;;;;5022005;28;46637;-63
2024/01/29 11:33:18;;;;;;;5.78;3.20;;;19.40;39.70;;;;;;5006326;28;45338;-61
2024/01/29 11:35:45;;;;;;;4.53;3.13;;;19.40;39.70;;;;;;5007705;28;45370;-60
2024/01/29 11:38:13;;;;;;;4.75;3.13;;;19.50;39.70;;;;;;5002608;28;45624;-61
2024/01/29 11:40:41;;;;;;;7.90;3.25;;;19.50;39.70;;;;;;5002727;28;47069;-60
2024/01/29 11:43:12;;;;;;;7.28;2.72;;;19.50;39.60;;;;;;5011874;27;45264;-61
2024/01/29 11:45:39;;;;;;;3.80;3.03;;;19.50;40.20;;;;;;5020862;27;45632;-61
2024/01/29 11:48:09;;;;;;;3.45;2.65;;;19.60;39.70;;;;;;5022003;28;45513;-60
2024/01/29 11:50:38;;;;;;;5.22;3.08;;;19.60;39.70;;;;;;5003446;28;46503;-61
2024/01/29 11:53:05;;;;;;;3.60;3.05;;;19.60;39.60;;;;;;4999912;28;45395;-61
2024/01/29 11:55:32;;;;;;;7.78;3.60;;;19.60;39.70;;;;;;5018416;28;45360;-62
2024/01/29 11:58:02;;;;;;;5.40;3.30;;;19.60;39.70;;;;;;5016951;28;45305;-60
2024/01/29 12:00:29;;;;;;;5.60;3.05;;;19.60;39.70;;;;;;5002182;28;47619;-60
2024/01/29 12:02:56;;;;;;;4.85;3.10;;;19.60;39.70;;;;;;5002255;28;45316;-60
2024/01/29 12:05:23;;;;;;;5.95;3.10;;;19.60;39.70;;;;;;5004416;28;45157;-61
2024/01/29 12:07:51;;;;;;;8.60;3.30;;;19.60;39.80;;;;;;5001728;28;45523;-60
2024/01/29 12:10:18;;;;;;;5.20;3.20;;;19.60;39.80;;;;;;5021682;28;45304;-62
2024/01/29 12:12:45;;;;;;;4.10;2.75;;;19.60;39.90;;;;;;5020577;28;45465;-60
2024/01/29 12:15:12;;;;;;;4.28;2.83;;;19.60;39.90;;;;;;5020071;28;45418;-61
2024/01/29 12:17:40;;;;;;;5.82;2.67;;;19.60;39.90;;;;;;5015796;28;45441;-60
2024/01/29 12:20:08;;;;;;;4.90;2.92;;;19.70;40.00;;;;;;5001989;28;45435;-60
2024/01/29 12:22:35;;;;;;;6.40;3.30;;;19.80;39.90;;;;;;5003369;28;45475;-60
2024/01/29 12:25:03;;;;;;;5.85;3.00;;;19.90;39.90;;;;;;5013074;28;45370;-60
2024/01/29 12:27:30;;;;;;;6.10;3.42;;;20.00;39.80;;;;;;5004403;28;45502;-61
2024/01/29 12:29:58;;;;;;;4.65;2.85;;;20.00;39.70;;;;;;5001580;28;47656;-61
2024/01/29 12:32:25;;;;;;;3.90;2.92;;;20.10;39.60;;;;;;5002811;28;46316;-61
2024/01/29 12:34:52;;;;;;;4.28;2.65;;;20.10;39.50;;;;;;5003351;27;45287;-60
2024/01/29 12:37:21;;;;;;;7.18;3.10;;;20.20;39.50;;;;;;5002474;27;45350;-61
2024/01/29 12:39:51;;;;;;;3.85;2.55;;;20.30;39.40;;;;;;5006106;28;48379;-61
2024/01/29 12:42:19;;;;;;;4.50;2.80;;;20.30;39.30;;;;;;5021837;28;45341;-60
2024/01/29 12:44:47;;;;;;;9.63;3.25;;;20.40;39.30;;;;;;5016383;28;45456;-61
2024/01/29 12:47:15;;;;;;;5.53;2.88;;;20.40;39.50;;;;;;5003548;27;45664;-63